クライストチャーチ の空港の天気 - METARとTAF

クライストチャーチ国際空港 ( NZCH / CHC ) - ニュージーランド クライストチャーチ
飛行場実況気象(Metar)
観測時間05/29 10:00 NZST (05/28 22:00 UTC)
風向・風速静穏 0m/s
視程10km以上
天気現象
なし
気温7℃
湿度93%
気圧1022hPa
METARNZCH 282200Z AUTO 00000KT 9999 NCD 07/06 Q1022 NOSIG
過去の天気等 Google飛行場航空写真 Wunderground天気予報

過去48時間のMETAR

飛行場予報(TAF)
発表時間: 5/29 06:21 NZST (5/28 18:21 UTC)
予報対象時間: 29日6時 NZST ~ 30日6時 NZST
風向・風速不定 1m/s
視程10km以上
なし
29日6時 NZST ~ 29日8時 NZST に 確率 40% で一時的に
視程200m
天気現象
全天の8割程度の雲 雲底高度 60m
29日10時 NZST ~ 29日12時 NZST に徐々に
風向・風速東北東 5m/s
29日21時 NZST ~ 29日23時 NZST に徐々に
風向・風速不定 1m/s
29日21時 NZST ~ 29日24時 NZST に一時的に
全天の8割程度の雲 雲底高度 180m
29日21時 NZST から 確率 30% で
視程2000m
天気現象もや
全天の8割程度の雲 雲底高度 90m
30日0時 NZST ~ 30日2時 NZST に徐々に
全天の8割程度の雲 雲底高度 180m
30日0時 NZST ~ 30日6時 NZST に一時的に
視程2000m
天気現象もや
全天の8割程度の雲 雲底高度 90m
TAF AMD NZCH 281821Z 2818/2918 VRB02KT CAVOK
PROB40 TEMPO 2818/2820 0200 FG BKN002
BECMG 2822/2900 06010KT
BECMG 2909/2911 VRB02KT
TEMPO 2909/2912 BKN006
PROB30 2909/2912 2000 BR BKN003
BECMG 2912/2914 BKN006
TEMPO 2912/2918 2000 BR BKN003